sensor_id;sensor_type;location;lat;lon;timestamp;pressure;altitude;pressure_sealevel;temperature;humidity
19831;BME280;10076;52.008;4.708;2022-12-17T00:02:06;102255.22;;;1.90;100.00
19831;BME280;10076;52.008;4.708;2022-12-17T00:04:50;102261.06;;;2.07;100.00
19831;BME280;10076;52.008;4.708;2022-12-17T00:07:34;102264.44;;;2.15;100.00
19831;BME280;10076;52.008;4.708;2022-12-17T00:10:18;102266.06;;;2.20;100.00
19831;BME280;10076;52.008;4.708;2022-12-17T00:13:02;102263.47;;;2.20;100.00
19831;BME280;10076;52.008;4.708;2022-12-17T00:15:52;102268.84;;;2.10;100.00
19831;BME280;10076;52.008;4.708;2022-12-17T00:18:36;102258.28;;;2.19;100.00
19831;BME280;10076;52.008;4.708;2022-12-17T00:21:20;102262.66;;;2.17;100.00
19831;BME280;10076;52.008;4.708;2022-12-17T00:24:04;102257.59;;;2.08;100.00
19831;BME280;10076;52.008;4.708;2022-12-17T00:26:49;102257.28;;;2.29;100.00
19831;BME280;10076;52.008;4.708;2022-12-17T00:29:32;102265.19;;;2.24;100.00
19831;BME280;10076;52.008;4.708;2022-12-17T00:32:17;102252.84;;;2.35;100.00
19831;BME280;10076;52.008;4.708;2022-12-17T00:35:01;102255.41;;;2.38;100.00
19831;BME280;10076;52.008;4.708;2022-12-17T00:37:45;102265.81;;;2.38;100.00
19831;BME280;10076;52.008;4.708;2022-12-17T00:40:29;102276.19;;;2.43;100.00
19831;BME280;10076;52.008;4.708;2022-12-17T00:43:13;102272.72;;;2.42;100.00
19831;BME280;10076;52.008;4.708;2022-12-17T00:45:57;102277.00;;;2.46;100.00
19831;BME280;10076;52.008;4.708;2022-12-17T00:48:42;102268.75;;;2.14;100.00
19831;BME280;10076;52.008;4.708;2022-12-17T00:51:26;102273.81;;;2.28;100.00
19831;BME280;10076;52.008;4.708;2022-12-17T00:54:10;102276.13;;;2.46;100.00
19831;BME280;10076;52.008;4.708;2022-12-17T00:56:55;102278.91;;;2.35;100.00
19831;BME280;10076;52.008;4.708;2022-12-17T00:59:38;102276.09;;;2.49;100.00
19831;BME280;10076;52.008;4.708;2022-12-17T01:02:23;102276.34;;;2.34;100.00
19831;BME280;10076;52.008;4.708;2022-12-17T01:05:07;102276.59;;;2.14;100.00
19831;BME280;10076;52.008;4.708;2022-12-17T01:07:50;102279.88;;;2.28;100.00
19831;BME280;10076;52.008;4.708;2022-12-17T01:10:35;102275.50;;;2.29;100.00
19831;BME280;10076;52.008;4.708;2022-12-17T01:13:22;102277.81;;;2.50;100.00
19831;BME280;10076;52.008;4.708;2022-12-17T01:16:12;102279.91;;;2.27;100.00
19831;BME280;10076;52.008;4.708;2022-12-17T01:18:56;102277.31;;;2.24;100.00
19831;BME280;10076;52.008;4.708;2022-12-17T01:21:40;102279.88;;;2.28;100.00
19831;BME280;10076;52.008;4.708;2022-12-17T01:24:25;102280.66;;;2.33;100.00
19831;BME280;10076;52.008;4.708;2022-12-17T01:27:09;102279.38;;;2.01;100.00
19831;BME280;10076;52.008;4.708;2022-12-17T01:29:53;102284.88;;;1.79;100.00
19831;BME280;10076;52.008;4.708;2022-12-17T01:32:36;102280.19;;;2.04;100.00
19831;BME280;10076;52.008;4.708;2022-12-17T01:35:20;102284.44;;;2.11;100.00
19831;BME280;10076;52.008;4.708;2022-12-17T01:38:12;102289.63;;;2.13;100.00
19831;BME280;10076;52.008;4.708;2022-12-17T01:40:56;102293.16;;;2.10;100.00
19831;BME280;10076;52.008;4.708;2022-12-17T01:43:40;102302.56;;;2.20;100.00
19831;BME280;10076;52.008;4.708;2022-12-17T01:46:25;102302.59;;;2.19;100.00
19831;BME280;10076;52.008;4.708;2022-12-17T01:49:11;102299.94;;;2.20;100.00
19831;BME280;10076;52.008;4.708;2022-12-17T01:51:55;102302.47;;;2.26;100.00
19831;BME280;10076;52.008;4.708;2022-12-17T01:54:39;102304.66;;;1.92;100.00
19831;BME280;10076;52.008;4.708;2022-12-17T01:57:24;102297.56;;;2.05;100.00
19831;BME280;10076;52.008;4.708;2022-12-17T02:00:12;102302.47;;;2.26;100.00
19831;BME280;10076;52.008;4.708;2022-12-17T02:02:58;102311.34;;;2.13;100.00
19831;BME280;10076;52.008;4.708;2022-12-17T02:06:17;102305.22;;;2.17;100.00
19831;BME280;10076;52.008;4.708;2022-12-17T02:09:16;102302.59;;;2.19;100.00
19831;BME280;10076;52.008;4.708;2022-12-17T02:12:12;102316.50;;;2.16;100.00
19831;BME280;10076;52.008;4.708;2022-12-17T02:15:13;102316.38;;;2.25;100.00
19831;BME280;10076;52.008;4.708;2022-12-17T02:18:02;102318.28;;;2.16;100.00
19831;BME280;10076;52.008;4.708;2022-12-17T02:20:50;102313.91;;;2.16;100.00
19831;BME280;10076;52.008;4.708;2022-12-17T02:23:59;102319.31;;;2.02;100.00
19831;BME280;10076;52.008;4.708;2022-12-17T02:26:50;102317.44;;;2.12;100.00
19831;BME280;10076;52.008;4.708;2022-12-17T02:29:41;102317.59;;;2.01;100.00
19831;BME280;10076;52.008;4.708;2022-12-17T02:32:26;102321.03;;;2.03;100.00
19831;BME280;10076;52.008;4.708;2022-12-17T02:35:17;102330.56;;;2.03;100.00
19831;BME280;10076;52.008;4.708;2022-12-17T02:38:16;102336.63;;;2.05;100.00
19831;BME280;10076;52.008;4.708;2022-12-17T02:41:01;102335.03;;;1.93;100.00
19831;BME280;10076;52.008;4.708;2022-12-17T02:43:47;102337.31;;;2.21;100.00
19831;BME280;10076;52.008;4.708;2022-12-17T02:46:31;102330.47;;;2.12;100.00
19831;BME280;10076;52.008;4.708;2022-12-17T02:49:15;102335.53;;;2.23;100.00
19831;BME280;10076;52.008;4.708;2022-12-17T02:51:59;102335.66;;;2.14;100.00
19831;BME280;10076;52.008;4.708;2022-12-17T02:54:43;102338.06;;;2.27;100.00
19831;BME280;10076;52.008;4.708;2022-12-17T02:57:27;102338.13;;;2.24;100.00
19831;BME280;10076;52.008;4.708;2022-12-17T03:00:11;102340.81;;;2.17;100.00
19831;BME280;10076;52.008;4.708;2022-12-17T03:02:55;102357.19;;;2.28;100.00
19831;BME280;10076;52.008;4.708;2022-12-17T03:05:39;102353.84;;;2.18;100.00
19831;BME280;10076;52.008;4.708;2022-12-17T03:08:23;102354.00;;;2.03;100.00
19831;BME280;10076;52.008;4.708;2022-12-17T03:11:07;102350.41;;;2.15;100.00
19831;BME280;10076;52.008;4.708;2022-12-17T03:13:51;102355.66;;;2.10;100.00
19831;BME280;10076;52.008;4.708;2022-12-17T03:16:37;102345.16;;;2.16;100.00
19831;BME280;10076;52.008;4.708;2022-12-17T03:19:21;102357.28;;;2.19;100.00
19831;BME280;10076;52.008;4.708;2022-12-17T03:22:05;102351.22;;;2.18;100.00
19831;BME280;10076;52.008;4.708;2022-12-17T03:24:49;102352.28;;;2.03;100.00
19831;BME280;10076;52.008;4.708;2022-12-17T03:27:33;102357.28;;;2.19;100.00
19831;BME280;10076;52.008;4.708;2022-12-17T03:30:17;102358.53;;;1.90;100.00
19831;BME280;10076;52.008;4.708;2022-12-17T03:33:01;102359.16;;;2.09;100.00
19831;BME280;10076;52.008;4.708;2022-12-17T03:35:45;102366.16;;;2.04;100.00
19831;BME280;10076;52.008;4.708;2022-12-17T03:38:29;102367.19;;;1.93;100.00
19831;BME280;10076;52.008;4.708;2022-12-17T03:41:12;102371.44;;;1.99;100.00
19831;BME280;10076;52.008;4.708;2022-12-17T03:43:56;102368.78;;;2.03;100.00
19831;BME280;10076;52.008;4.708;2022-12-17T03:46:40;102369.78;;;1.92;100.00
19831;BME280;10076;52.008;4.708;2022-12-17T03:49:24;102372.72;;;1.60;100.00
19831;BME280;10076;52.008;4.708;2022-12-17T03:52:08;102368.19;;;1.77;100.00
19831;BME280;10076;52.008;4.708;2022-12-17T03:54:52;102367.28;;;1.83;100.00
19831;BME280;10076;52.008;4.708;2022-12-17T03:57:36;102363.06;;;1.73;100.00
19831;BME280;10076;52.008;4.708;2022-12-17T04:00:20;102363.88;;;1.75;100.00
19831;BME280;10076;52.008;4.708;2022-12-17T04:03:04;102367.56;;;1.56;100.00
19831;BME280;10076;52.008;4.708;2022-12-17T04:05:48;102371.53;;;1.88;100.00
19831;BME280;10076;52.008;4.708;2022-12-17T04:08:32;102375.97;;;1.82;100.00
19831;BME280;10076;52.008;4.708;2022-12-17T04:11:16;102377.03;;;1.64;100.00
19831;BME280;10076;52.008;4.708;2022-12-17T04:14:00;102387.38;;;1.69;100.00
19831;BME280;10076;52.008;4.708;2022-12-17T04:16:44;102387.50;;;1.58;100.00
19831;BME280;10076;52.008;4.708;2022-12-17T04:19:28;102387.31;;;1.78;100.00
19831;BME280;10076;52.008;4.708;2022-12-17T04:22:12;102380.25;;;1.89;100.00
19831;BME280;10076;52.008;4.708;2022-12-17T04:24:56;102381.13;;;1.88;100.00
19831;BME280;10076;52.008;4.708;2022-12-17T04:27:40;102376.94;;;1.72;100.00
19831;BME280;10076;52.008;4.708;2022-12-17T04:30:24;102382.16;;;1.72;100.00
19831;BME280;10076;52.008;4.708;2022-12-17T04:33:08;102386.38;;;1.85;100.00
19831;BME280;10076;52.008;4.708;2022-12-17T04:35:52;102387.44;;;1.66;100.00
19831;BME280;10076;52.008;4.708;2022-12-17T04:38:36;102380.38;;;1.74;100.00
19831;BME280;10076;52.008;4.708;2022-12-17T04:41:20;102384.91;;;1.57;100.00
19831;BME280;10076;52.008;4.708;2022-12-17T04:44:04;102380.25;;;1.86;100.00
19831;BME280;10076;52.008;4.708;2022-12-17T04:46:48;102376.91;;;1.75;100.00
19831;BME280;10076;52.008;4.708;2022-12-17T04:49:32;102388.25;;;1.71;100.00
19831;BME280;10076;52.008;4.708;2022-12-17T04:52:16;102385.66;;;1.68;100.00
19831;BME280;10076;52.008;4.708;2022-12-17T04:55:00;102378.56;;;1.85;100.00
19831;BME280;10076;52.008;4.708;2022-12-17T04:57:44;102382.94;;;1.78;100.00
19831;BME280;10076;52.008;4.708;2022-12-17T05:00:28;102383.94;;;1.67;100.00
19831;BME280;10076;52.008;4.708;2022-12-17T05:03:14;102384.00;;;1.59;100.00
19831;BME280;10076;52.008;4.708;2022-12-17T05:05:58;102384.00;;;1.61;100.00
19831;BME280;10076;52.008;4.708;2022-12-17T05:08:42;102382.03;;;1.82;100.00
19831;BME280;10076;52.008;4.708;2022-12-17T05:11:26;102383.84;;;1.76;100.00
19831;BME280;10076;52.008;4.708;2022-12-17T05:14:14;102390.00;;;1.70;100.00
19831;BME280;10076;52.008;4.708;2022-12-17T05:16:58;102388.00;;;1.93;100.00
19831;BME280;10076;52.008;4.708;2022-12-17T05:19:42;102381.91;;;1.94;100.00
19831;BME280;10076;52.008;4.708;2022-12-17T05:22:26;102388.03;;;1.90;100.00
19831;BME280;10076;52.008;4.708;2022-12-17T05:25:10;102392.47;;;1.81;100.00
19831;BME280;10076;52.008;4.708;2022-12-17T05:27:54;102390.94;;;1.60;100.00
19831;BME280;10076;52.008;4.708;2022-12-17T05:30:38;102392.69;;;1.60;100.00
19831;BME280;10076;52.008;4.708;2022-12-17T05:33:22;102399.63;;;1.59;100.00
19831;BME280;10076;52.008;4.708;2022-12-17T05:36:06;102397.91;;;1.58;100.00
19831;BME280;10076;52.008;4.708;2022-12-17T05:38:50;102400.53;;;1.58;100.00
19831;BME280;10076;52.008;4.708;2022-12-17T05:41:34;102399.69;;;1.55;100.00
19831;BME280;10076;52.008;4.708;2022-12-17T05:44:18;102392.66;;;1.63;100.00
19831;BME280;10076;52.008;4.708;2022-12-17T05:47:02;102387.31;;;1.78;100.00
19831;BME280;10076;52.008;4.708;2022-12-17T05:49:46;102399.44;;;1.79;100.00
19831;BME280;10076;52.008;4.708;2022-12-17T05:52:30;102404.94;;;1.47;100.00
19831;BME280;10076;52.008;4.708;2022-12-17T05:55:14;102411.94;;;1.44;100.00
19831;BME280;10076;52.008;4.708;2022-12-17T05:58:06;102413.56;;;1.54;100.00
19831;BME280;10076;52.008;4.708;2022-12-17T06:01:00;102413.50;;;1.60;100.00
19831;BME280;10076;52.008;4.708;2022-12-17T06:03:44;102417.94;;;1.50;100.00
19831;BME280;10076;52.008;4.708;2022-12-17T06:06:28;102418.72;;;1.57;100.00
19831;BME280;10076;52.008;4.708;2022-12-17T06:09:12;102413.50;;;1.61;100.00
19831;BME280;10076;52.008;4.708;2022-12-17T06:11:56;102423.06;;;1.58;100.00
19831;BME280;10076;52.008;4.708;2022-12-17T06:14:40;102433.31;;;1.76;100.00
19831;BME280;10076;52.008;4.708;2022-12-17T06:17:24;102440.94;;;1.94;100.00
19831;BME280;10076;52.008;4.708;2022-12-17T06:20:09;102440.78;;;2.07;100.00
19831;BME280;10076;52.008;4.708;2022-12-17T06:25:43;102449.69;;;1.87;100.00
19831;BME280;10076;52.008;4.708;2022-12-17T06:28:27;102453.09;;;1.95;100.00
19831;BME280;10076;52.008;4.708;2022-12-17T06:31:11;102442.44;;;2.15;100.00
19831;BME280;10076;52.008;4.708;2022-12-17T06:33:54;102446.31;;;1.79;100.00
19831;BME280;10076;52.008;4.708;2022-12-17T06:36:39;102441.00;;;1.88;100.00
19831;BME280;10076;52.008;4.708;2022-12-17T06:39:22;102434.75;;;2.05;100.00
19831;BME280;10076;52.008;4.708;2022-12-17T06:42:06;102438.34;;;1.94;100.00
19831;BME280;10076;52.008;4.708;2022-12-17T06:44:50;102436.66;;;1.87;100.00
19831;BME280;10076;52.008;4.708;2022-12-17T06:47:34;102438.38;;;1.91;100.00
19831;BME280;10076;52.008;4.708;2022-12-17T06:50:18;102436.53;;;2.00;100.00
19831;BME280;10076;52.008;4.708;2022-12-17T06:53:04;102431.44;;;1.90;100.00
19831;BME280;10076;52.008;4.708;2022-12-17T06:55:48;102432.13;;;2.06;100.00
19831;BME280;10076;52.008;4.708;2022-12-17T06:58:32;102434.06;;;1.90;100.00
19831;BME280;10076;52.008;4.708;2022-12-17T07:01:16;102437.53;;;1.89;100.00
19831;BME280;10076;52.008;4.708;2022-12-17T07:04:00;102440.03;;;1.98;100.00
19831;BME280;10076;52.008;4.708;2022-12-17T07:06:44;102440.00;;;2.02;100.00
19831;BME280;10076;52.008;4.708;2022-12-17T07:09:28;102441.84;;;1.88;100.00
19831;BME280;10076;52.008;4.708;2022-12-17T07:12:12;102445.25;;;1.99;100.00
19831;BME280;10076;52.008;4.708;2022-12-17T07:14:56;102445.91;;;2.17;100.00
19831;BME280;10076;52.008;4.708;2022-12-17T07:17:40;102455.44;;;2.20;100.00
19831;BME280;10076;52.008;4.708;2022-12-17T07:20:24;102470.22;;;2.19;100.00
19831;BME280;10076;52.008;4.708;2022-12-17T07:23:08;102463.53;;;1.92;100.00
19831;BME280;10076;52.008;4.708;2022-12-17T07:25:51;102465.09;;;2.09;100.00
19831;BME280;10076;52.008;4.708;2022-12-17T07:28:35;102471.09;;;2.15;100.00
19831;BME280;10076;52.008;4.708;2022-12-17T07:31:19;102478.09;;;2.13;100.00
19831;BME280;10076;52.008;4.708;2022-12-17T07:34:03;102479.97;;;1.97;100.00
19831;BME280;10076;52.008;4.708;2022-12-17T07:36:47;102483.41;;;2.00;100.00
19831;BME280;10076;52.008;4.708;2022-12-17T07:39:31;102486.84;;;2.06;100.00
19831;BME280;10076;52.008;4.708;2022-12-17T07:42:15;102480.09;;;1.83;100.00
19831;BME280;10076;52.008;4.708;2022-12-17T07:44:59;102494.84;;;1.86;100.00
19831;BME280;10076;52.008;4.708;2022-12-17T07:47:52;102499.31;;;1.72;100.00
19831;BME280;10076;52.008;4.708;2022-12-17T07:50:37;102497.59;;;1.71;100.00
19831;BME280;10076;52.008;4.708;2022-12-17T07:53:20;102500.09;;;1.80;100.00
19831;BME280;10076;52.008;4.708;2022-12-17T07:56:05;102501.75;;;1.88;100.00
19831;BME280;10076;52.008;4.708;2022-12-17T07:58:49;102496.66;;;1.78;100.00
19831;BME280;10076;52.008;4.708;2022-12-17T08:01:33;102512.09;;;1.99;100.00
19831;BME280;10076;52.008;4.708;2022-12-17T08:04:16;102515.50;;;2.03;100.00
19831;BME280;10076;52.008;4.708;2022-12-17T08:07:00;102514.84;;;1.84;100.00
19831;BME280;10076;52.008;4.708;2022-12-17T08:09:44;102514.09;;;1.67;100.00
19831;BME280;10076;52.008;4.708;2022-12-17T08:12:28;102519.22;;;1.76;100.00
19831;BME280;10076;52.008;4.708;2022-12-17T08:15:12;102521.19;;;1.50;100.00
19831;BME280;10076;52.008;4.708;2022-12-17T08:18:01;102520.47;;;1.29;100.00
19831;BME280;10076;52.008;4.708;2022-12-17T08:20:46;102533.28;;;1.58;100.00
19831;BME280;10076;52.008;4.708;2022-12-17T08:23:30;102529.69;;;1.70;100.00
19831;BME280;10076;52.008;4.708;2022-12-17T08:26:14;102536.69;;;1.65;100.00
19831;BME280;10076;52.008;4.708;2022-12-17T08:28:58;102534.16;;;1.56;100.00
19831;BME280;10076;52.008;4.708;2022-12-17T08:31:42;102535.97;;;1.39;100.00
19831;BME280;10076;52.008;4.708;2022-12-17T08:34:26;102530.72;;;1.52;100.00
19831;BME280;10076;52.008;4.708;2022-12-17T08:37:10;102541.06;;;1.57;100.00
19831;BME280;10076;52.008;4.708;2022-12-17T08:39:54;102539.47;;;1.39;100.00
19831;BME280;10076;52.008;4.708;2022-12-17T08:42:38;102539.31;;;1.59;100.00
19831;BME280;10076;52.008;4.708;2022-12-17T08:45:22;102534.94;;;1.67;100.00
19831;BME280;10076;52.008;4.708;2022-12-17T08:48:06;102544.50;;;1.65;100.00
19831;BME280;10076;52.008;4.708;2022-12-17T08:50:51;102545.47;;;1.46;100.00
19831;BME280;10076;52.008;4.708;2022-12-17T08:53:35;102545.56;;;1.33;100.00
19831;BME280;10076;52.008;4.708;2022-12-17T08:56:19;102555.97;;;1.37;100.00
19831;BME280;10076;52.008;4.708;2022-12-17T08:59:03;102565.50;;;1.35;100.00
19831;BME280;10076;52.008;4.708;2022-12-17T09:01:48;102561.25;;;1.16;100.00
19831;BME280;10076;52.008;4.708;2022-12-17T09:04:31;102550.00;;;1.20;100.00
19831;BME280;10076;52.008;4.708;2022-12-17T09:07:15;102550.06;;;1.07;100.00
19831;BME280;10076;52.008;4.708;2022-12-17T09:09:59;102556.13;;;1.07;100.00
19831;BME280;10076;52.008;4.708;2022-12-17T09:12:43;102552.56;;;1.26;100.00
19831;BME280;10076;52.008;4.708;2022-12-17T09:15:27;102557.78;;;1.17;100.00
19831;BME280;10076;52.008;4.708;2022-12-17T09:18:11;102564.78;;;1.09;100.00
19831;BME280;10076;52.008;4.708;2022-12-17T09:20:55;102558.66;;;1.21;100.00
19831;BME280;10076;52.008;4.708;2022-12-17T09:23:39;102559.56;;;1.15;100.00
19831;BME280;10076;52.008;4.708;2022-12-17T09:26:24;102565.47;;;1.39;100.00
19831;BME280;10076;52.008;4.708;2022-12-17T09:29:08;102572.28;;;1.57;100.00
19831;BME280;10076;52.008;4.708;2022-12-17T09:31:52;102564.31;;;1.81;100.00
19831;BME280;10076;52.008;4.708;2022-12-17T09:34:36;102570.53;;;1.63;100.00
19831;BME280;10076;52.008;4.708;2022-12-17T09:37:20;102587.69;;;1.88;100.00
19831;BME280;10076;52.008;4.708;2022-12-17T09:40:04;102592.81;;;2.00;100.00
19831;BME280;10076;52.008;4.708;2022-12-17T09:42:57;102595.50;;;1.90;100.00
19831;BME280;10076;52.008;4.708;2022-12-17T09:48:55;102593.44;;;2.30;100.00
19831;BME280;10076;52.008;4.708;2022-12-17T09:51:52;102592.59;;;2.25;100.00
19831;BME280;10076;52.008;4.708;2022-12-17T09:54:45;102609.13;;;2.24;100.00
19831;BME280;10076;52.008;4.708;2022-12-17T09:57:33;102596.97;;;2.20;100.00
19831;BME280;10076;52.008;4.708;2022-12-17T10:03:03;102600.84;;;2.69;100.00
19831;BME280;10076;52.008;4.708;2022-12-17T10:05:53;102599.00;;;2.80;100.00
19831;BME280;10076;52.008;4.708;2022-12-17T10:08:37;102615.63;;;2.70;100.00
19831;BME280;10076;52.008;4.708;2022-12-17T10:11:23;102603.94;;;3.01;100.00
19831;BME280;10076;52.008;4.708;2022-12-17T10:14:19;102601.13;;;3.19;100.00
19831;BME280;10076;52.008;4.708;2022-12-17T10:17:03;102613.13;;;3.32;100.00
19831;BME280;10076;52.008;4.708;2022-12-17T10:19:50;102610.97;;;3.62;100.00
19831;BME280;10076;52.008;4.708;2022-12-17T10:22:46;102613.69;;;3.54;100.00
19831;BME280;10076;52.008;4.708;2022-12-17T10:25:30;102599.63;;;3.64;100.00
19831;BME280;10076;52.008;4.708;2022-12-17T10:28:18;102600.19;;;4.37;100.00
19831;BME280;10076;52.008;4.708;2022-12-17T10:31:08;102599.06;;;4.95;100.00
19831;BME280;10076;52.008;4.708;2022-12-17T10:33:56;102597.44;;;5.32;100.00
19831;BME280;10076;52.008;4.708;2022-12-17T10:36:48;102598.91;;;5.43;100.00
19831;BME280;10076;52.008;4.708;2022-12-17T10:39:33;102597.94;;;6.22;100.00
19831;BME280;10076;52.008;4.708;2022-12-17T10:42:24;102600.53;;;6.89;100.00
19831;BME280;10076;52.008;4.708;2022-12-17T10:45:32;102604.88;;;6.58;100.00
19831;BME280;10076;52.008;4.708;2022-12-17T10:48:30;102601.38;;;5.90;100.00
19831;BME280;10076;52.008;4.708;2022-12-17T10:51:29;102599.94;;;5.38;100.00
19831;BME280;10076;52.008;4.708;2022-12-17T10:54:22;102601.72;;;4.93;100.00
19831;BME280;10076;52.008;4.708;2022-12-17T10:57:07;102601.19;;;4.77;100.00
19831;BME280;10076;52.008;4.708;2022-12-17T10:59:51;102604.16;;;4.59;100.00
19831;BME280;10076;52.008;4.708;2022-12-17T11:02:36;102618.28;;;4.49;100.00
19831;BME280;10076;52.008;4.708;2022-12-17T11:05:27;102618.84;;;4.16;100.00
19831;BME280;10076;52.008;4.708;2022-12-17T11:08:14;102612.50;;;4.30;100.00
19831;BME280;10076;52.008;4.708;2022-12-17T11:11:15;102621.63;;;4.06;100.00
19831;BME280;10076;52.008;4.708;2022-12-17T11:14:01;102613.97;;;3.95;100.00
19831;BME280;10076;52.008;4.708;2022-12-17T11:16:53;102608.78;;;3.92;100.00
19831;BME280;10076;52.008;4.708;2022-12-17T11:19:46;102608.88;;;3.86;100.00
19831;BME280;10076;52.008;4.708;2022-12-17T11:22:53;102609.31;;;4.12;100.00
19831;BME280;10076;52.008;4.708;2022-12-17T11:25:52;102610.38;;;4.02;100.00
19831;BME280;10076;52.008;4.708;2022-12-17T11:28:37;102609.56;;;3.99;100.00
19831;BME280;10076;52.008;4.708;2022-12-17T11:31:37;102602.94;;;3.77;100.00
19831;BME280;10076;52.008;4.708;2022-12-17T11:34:35;102602.84;;;3.83;100.00
19831;BME280;10076;52.008;4.708;2022-12-17T11:40:39;102606.09;;;3.98;100.00
19831;BME280;10076;52.008;4.708;2022-12-17T11:43:31;102608.81;;;3.89;100.00
19831;BME280;10076;52.008;4.708;2022-12-17T11:46:43;102608.63;;;4.51;100.00
19831;BME280;10076;52.008;4.708;2022-12-17T11:50:25;102604.06;;;5.07;100.00
19831;BME280;10076;52.008;4.708;2022-12-17T11:53:01;102590.97;;;5.47;100.00
19831;BME280;10076;52.008;4.708;2022-12-17T11:56:03;102594.22;;;6.64;100.00
19831;BME280;10076;52.008;4.708;2022-12-17T11:58:55;102591.53;;;7.56;100.00
19831;BME280;10076;52.008;4.708;2022-12-17T12:01:48;102595.00;;;8.37;100.00
19831;BME280;10076;52.008;4.708;2022-12-17T12:05:01;102595.25;;;9.50;100.00
19831;BME280;10076;52.008;4.708;2022-12-17T12:23:01;102594.06;;;12.31;100.00
19831;BME280;10076;52.008;4.708;2022-12-17T12:26:11;102589.94;;;12.59;100.00
19831;BME280;10076;52.008;4.708;2022-12-17T12:29:18;102591.88;;;12.72;100.00
19831;BME280;10076;52.008;4.708;2022-12-17T12:32:18;102597.97;;;12.57;100.00
19831;BME280;10076;52.008;4.708;2022-12-17T12:35:04;102589.38;;;12.36;100.00
19831;BME280;10076;52.008;4.708;2022-12-17T12:37:55;102584.78;;;12.73;100.00
19831;BME280;10076;52.008;4.708;2022-12-17T12:40:47;102589.06;;;12.75;100.00
19831;BME280;10076;52.008;4.708;2022-12-17T12:43:38;102594.84;;;12.83;100.00
19831;BME280;10076;52.008;4.708;2022-12-17T12:47:08;102600.06;;;12.51;100.00
19831;BME280;10076;52.008;4.708;2022-12-17T12:49:58;102598.19;;;13.04;100.00
19831;BME280;10076;52.008;4.708;2022-12-17T12:52:43;102600.66;;;12.22;100.00
19831;BME280;10076;52.008;4.708;2022-12-17T12:55:38;102596.28;;;11.31;100.00
19831;BME280;10076;52.008;4.708;2022-12-17T12:58:29;102593.34;;;11.37;100.00
19831;BME280;10076;52.008;4.708;2022-12-17T13:01:36;102592.34;;;11.39;100.00
19831;BME280;10076;52.008;4.708;2022-12-17T13:04:30;102593.47;;;11.15;100.00
19831;BME280;10076;52.008;4.708;2022-12-17T13:07:25;102596.50;;;11.45;100.00
19831;BME280;10076;52.008;4.708;2022-12-17T13:09:53;102604.59;;;11.78;100.00
19831;BME280;10076;52.008;4.708;2022-12-17T13:12:23;102592.09;;;11.07;100.00
19831;BME280;10076;52.008;4.708;2022-12-17T13:17:43;102596.84;;;9.98;100.00
19831;BME280;10076;52.008;4.708;2022-12-17T13:20:20;102577.66;;;9.72;100.00
19831;BME280;10076;52.008;4.708;2022-12-17T13:25:35;102570.25;;;10.24;100.00
19831;BME280;10076;52.008;4.708;2022-12-17T13:28:01;102571.91;;;10.66;100.00
19831;BME280;10076;52.008;4.708;2022-12-17T13:30:35;102570.75;;;11.30;100.00
19831;BME280;10076;52.008;4.708;2022-12-17T13:41:33;102569.19;;;10.88;100.00
19831;BME280;10076;52.008;4.708;2022-12-17T13:44:02;102564.41;;;9.95;100.00
19831;BME280;10076;52.008;4.708;2022-12-17T13:46:34;102571.13;;;9.38;100.00
19831;BME280;10076;52.008;4.708;2022-12-17T13:49:23;102563.25;;;8.91;100.00
19831;BME280;10076;52.008;4.708;2022-12-17T13:52:03;102574.56;;;7.66;100.00
19831;BME280;10076;52.008;4.708;2022-12-17T13:54:29;102571.19;;;7.34;100.00
19831;BME280;10076;52.008;4.708;2022-12-17T13:57:05;102568.72;;;6.69;100.00
19831;BME280;10076;52.008;4.708;2022-12-17T13:59:31;102571.72;;;6.21;100.00
19831;BME280;10076;52.008;4.708;2022-12-17T14:01:56;102581.22;;;6.26;100.00
19831;BME280;10076;52.008;4.708;2022-12-17T14:04:24;102582.44;;;6.14;100.00
19831;BME280;10076;52.008;4.708;2022-12-17T14:06:51;102579.66;;;5.85;100.00
19831;BME280;10076;52.008;4.708;2022-12-17T14:09:19;102577.78;;;5.52;100.00
19831;BME280;10076;52.008;4.708;2022-12-17T14:11:46;102580.50;;;5.47;100.00
19831;BME280;10076;52.008;4.708;2022-12-17T14:14:33;102578.66;;;5.13;100.00
19831;BME280;10076;52.008;4.708;2022-12-17T14:16:59;102580.84;;;4.92;100.00
19831;BME280;10076;52.008;4.708;2022-12-17T14:19:26;102582.63;;;4.88;100.00
19831;BME280;10076;52.008;4.708;2022-12-17T14:21:53;102585.97;;;4.51;100.00
19831;BME280;10076;52.008;4.708;2022-12-17T14:24:21;102596.09;;;4.22;100.00
19831;BME280;10076;52.008;4.708;2022-12-17T14:26:53;102603.03;;;3.68;100.00
19831;BME280;10076;52.008;4.708;2022-12-17T14:29:27;102607.72;;;3.46;100.00
19831;BME280;10076;52.008;4.708;2022-12-17T14:31:58;102609.16;;;3.68;100.00
19831;BME280;10076;52.008;4.708;2022-12-17T14:34:24;102607.09;;;3.88;100.00
19831;BME280;10076;52.008;4.708;2022-12-17T14:36:57;102608.09;;;3.81;100.00
19831;BME280;10076;52.008;4.708;2022-12-17T14:39:29;102611.38;;;3.94;100.00
19831;BME280;10076;52.008;4.708;2022-12-17T14:41:57;102614.69;;;4.05;100.00
19831;BME280;10076;52.008;4.708;2022-12-17T14:44:53;102615.66;;;3.38;100.00
19831;BME280;10076;52.008;4.708;2022-12-17T14:49:54;102616.44;;;3.44;100.00
19831;BME280;10076;52.008;4.708;2022-12-17T14:52:49;102616.75;;;3.22;100.00
19831;BME280;10076;52.008;4.708;2022-12-17T14:55:25;102619.47;;;3.13;100.00
19831;BME280;10076;52.008;4.708;2022-12-17T14:57:52;102623.03;;;3.07;100.00
19831;BME280;10076;52.008;4.708;2022-12-17T15:00:18;102623.25;;;2.88;100.00
19831;BME280;10076;52.008;4.708;2022-12-17T15:02:51;102623.13;;;2.97;100.00
19831;BME280;10076;52.008;4.708;2022-12-17T15:05:18;102624.00;;;2.99;100.00
19831;BME280;10076;52.008;4.708;2022-12-17T15:07:43;102626.13;;;2.64;100.00